Weather at Konarzyny Air Base [CLOSED]

Public forecast

Using degrees Celsius for public forecast. Weather courtesy of forecast.io.

Closest aviation weather report (METAR) to Konarzyny Air Base

Closest report is Bydgoszcz Ignacy Jan Paderewski Airport, 49.1 nm (91.0 km) SSE. Retrieved 2021/06/13 10:30 UTC (6 minutes ago):

EPBY 131030Z 31016KT 9999 FEW041 SCT049 18/08 Q1018

Closest aviation forecast (TAF) to Konarzyny Air Base

Closest forecast is Bydgoszcz Ignacy Jan Paderewski Airport, 49.1 nm (91.0 km) SSE. Retrieved 2021/06/13 06:00 UTC (5 hours ago):

TAF EPBY 130530Z 1306/1406 32014KT CAVOK TEMPO 1308/1317 33016G30KT BECMG 1317/1319 26008KT